sensor_id;sensor_type;location;lat;lon;timestamp;pressure;altitude;pressure_sealevel;temperature;humidity
14800;BME280;7491;57.750;11.970;2024-02-23T00:01:47;73437.22;;;-142.11;100.00
14800;BME280;7491;57.750;11.970;2024-02-23T00:04:14;73429.09;;;-142.11;100.00
14800;BME280;7491;57.750;11.970;2024-02-23T00:06:41;73425.00;;;-142.11;100.00
14800;BME280;7491;57.750;11.970;2024-02-23T00:09:08;73416.88;;;-142.11;100.00
14800;BME280;7491;57.750;11.970;2024-02-23T00:11:35;73396.50;;;-142.11;100.00
14800;BME280;7491;57.750;11.970;2024-02-23T00:14:05;73394.47;;;-142.11;100.00
14800;BME280;7491;57.750;11.970;2024-02-23T00:16:37;73392.41;;;-142.11;100.00
14800;BME280;7491;57.750;11.970;2024-02-23T00:19:07;73380.19;;;-142.11;100.00
14800;BME280;7491;57.750;11.970;2024-02-23T00:21:35;73355.75;;;-142.11;100.00
14800;BME280;7491;57.750;11.970;2024-02-23T00:24:03;73367.97;;;-142.11;100.00
14800;BME280;7491;57.750;11.970;2024-02-23T00:26:30;73323.16;;;-142.11;100.00
14800;BME280;7491;57.750;11.970;2024-02-23T00:28:57;73351.69;;;-142.11;100.00
14800;BME280;7491;57.750;11.970;2024-02-23T00:31:24;73327.25;;;-142.11;100.00
14800;BME280;7491;57.750;11.970;2024-02-23T00:33:50;73329.28;;;-142.11;100.00
14800;BME280;7491;57.750;11.970;2024-02-23T00:36:18;73310.94;;;-142.11;100.00
14800;BME280;7491;57.750;11.970;2024-02-23T00:38:45;73313.00;;;-142.11;100.00
14800;BME280;7491;57.750;11.970;2024-02-23T00:41:12;73306.88;;;-142.11;100.00
14800;BME280;7491;57.750;11.970;2024-02-23T00:43:39;73288.53;;;-142.11;100.00
14800;BME280;7491;57.750;11.970;2024-02-23T00:46:06;73262.06;;;-142.11;100.00
14800;BME280;7491;57.750;11.970;2024-02-23T00:48:33;73264.09;;;-142.11;100.00
14800;BME280;7491;57.750;11.970;2024-02-23T00:51:01;73255.97;;;-142.11;100.00
14800;BME280;7491;57.750;11.970;2024-02-23T00:53:30;73247.81;;;-142.11;100.00
14800;BME280;7491;57.750;11.970;2024-02-23T00:55:57;73233.56;;;-142.11;100.00
14800;BME280;7491;57.750;11.970;2024-02-23T00:58:24;73203.00;;;-142.11;100.00
14800;BME280;7491;57.750;11.970;2024-02-23T01:00:51;73192.81;;;-142.11;100.00
14800;BME280;7491;57.750;11.970;2024-02-23T01:03:20;73203.00;;;-142.11;100.00
14800;BME280;7491;57.750;11.970;2024-02-23T01:05:50;73196.88;;;-142.11;100.00
14800;BME280;7491;57.750;11.970;2024-02-23T01:08:17;73186.72;;;-142.11;100.00
14800;BME280;7491;57.750;11.970;2024-02-23T01:10:45;73180.59;;;-142.11;100.00
14800;BME280;7491;57.750;11.970;2024-02-23T01:13:12;73176.53;;;-142.11;100.00
14800;BME280;7491;57.750;11.970;2024-02-23T01:15:41;73168.38;;;-142.11;100.00
14800;BME280;7491;57.750;11.970;2024-02-23T01:18:08;73158.19;;;-142.11;100.00
14800;BME280;7491;57.750;11.970;2024-02-23T01:20:34;73158.19;;;-142.11;100.00
14800;BME280;7491;57.750;11.970;2024-02-23T01:23:01;73137.81;;;-142.11;100.00
14800;BME280;7491;57.750;11.970;2024-02-23T01:25:28;73143.94;;;-142.11;100.00
14800;BME280;7491;57.750;11.970;2024-02-23T01:27:56;73141.91;;;-142.11;100.00
14800;BME280;7491;57.750;11.970;2024-02-23T01:30:23;73141.91;;;-142.11;100.00
14800;BME280;7491;57.750;11.970;2024-02-23T01:32:50;73129.69;;;-142.11;100.00
14800;BME280;7491;57.750;11.970;2024-02-23T01:35:17;73121.53;;;-142.11;100.00
14800;BME280;7491;57.750;11.970;2024-02-23T01:37:44;73121.53;;;-142.11;100.00
14800;BME280;7491;57.750;11.970;2024-02-23T01:40:11;73105.25;;;-142.11;100.00
14800;BME280;7491;57.750;11.970;2024-02-23T01:42:38;73107.28;;;-142.11;100.00
14800;BME280;7491;57.750;11.970;2024-02-23T01:45:07;73109.31;;;-142.11;100.00
14800;BME280;7491;57.750;11.970;2024-02-23T01:47:34;73080.81;;;-142.11;100.00
14800;BME280;7491;57.750;11.970;2024-02-23T01:50:02;73084.88;;;-142.11;100.00
14800;BME280;7491;57.750;11.970;2024-02-23T01:52:29;73082.84;;;-142.11;100.00
14800;BME280;7491;57.750;11.970;2024-02-23T01:54:56;73072.66;;;-142.11;100.00
14800;BME280;7491;57.750;11.970;2024-02-23T01:57:23;73060.44;;;-142.11;100.00
14800;BME280;7491;57.750;11.970;2024-02-23T01:59:51;73042.09;;;-142.11;100.00
14800;BME280;7491;57.750;11.970;2024-02-23T02:02:19;73054.31;;;-142.11;100.00
14800;BME280;7491;57.750;11.970;2024-02-23T02:04:46;73044.13;;;-142.11;100.00
14800;BME280;7491;57.750;11.970;2024-02-23T02:07:13;73031.91;;;-142.11;100.00
14800;BME280;7491;57.750;11.970;2024-02-23T02:09:40;73036.00;;;-142.11;100.00
14800;BME280;7491;57.750;11.970;2024-02-23T02:12:08;73023.78;;;-142.11;100.00
14800;BME280;7491;57.750;11.970;2024-02-23T02:14:37;73038.03;;;-142.11;100.00
14800;BME280;7491;57.750;11.970;2024-02-23T02:17:03;73029.88;;;-142.11;100.00
14800;BME280;7491;57.750;11.970;2024-02-23T02:19:33;73017.66;;;-142.11;100.00
14800;BME280;7491;57.750;11.970;2024-02-23T02:22:02;73003.41;;;-142.11;100.00
14800;BME280;7491;57.750;11.970;2024-02-23T02:24:30;73011.56;;;-142.11;100.00
14800;BME280;7491;57.750;11.970;2024-02-23T02:26:57;72999.34;;;-142.11;100.00
14800;BME280;7491;57.750;11.970;2024-02-23T02:29:30;72997.28;;;-142.11;100.00
14800;BME280;7491;57.750;11.970;2024-02-23T02:31:57;72981.00;;;-142.11;100.00
14800;BME280;7491;57.750;11.970;2024-02-23T02:34:38;72974.91;;;-142.11;100.00
14800;BME280;7491;57.750;11.970;2024-02-23T02:37:05;72972.84;;;-142.11;100.00
14800;BME280;7491;57.750;11.970;2024-02-23T02:39:36;72944.34;;;-142.11;100.00
14800;BME280;7491;57.750;11.970;2024-02-23T02:42:05;72942.31;;;-142.11;100.00
14800;BME280;7491;57.750;11.970;2024-02-23T02:44:32;72962.66;;;-142.11;100.00
14800;BME280;7491;57.750;11.970;2024-02-23T02:47:12;72932.13;;;-142.11;100.00
14800;BME280;7491;57.750;11.970;2024-02-23T02:49:45;72919.91;;;-142.11;100.00
14800;BME280;7491;57.750;11.970;2024-02-23T02:52:23;72905.66;;;-142.11;100.00
14800;BME280;7491;57.750;11.970;2024-02-23T02:54:53;72897.50;;;-142.11;100.00
14800;BME280;7491;57.750;11.970;2024-02-23T02:57:20;72899.53;;;-142.11;100.00
14800;BME280;7491;57.750;11.970;2024-02-23T02:59:53;72885.28;;;-142.11;100.00
14800;BME280;7491;57.750;11.970;2024-02-23T03:02:35;72883.25;;;-142.11;100.00
14800;BME280;7491;57.750;11.970;2024-02-23T03:05:05;72885.28;;;-142.11;100.00
14800;BME280;7491;57.750;11.970;2024-02-23T03:07:39;72879.19;;;-142.11;100.00
14800;BME280;7491;57.750;11.970;2024-02-23T03:10:12;72885.28;;;-142.11;100.00
14800;BME280;7491;57.750;11.970;2024-02-23T03:12:45;72879.19;;;-142.11;100.00
14800;BME280;7491;57.750;11.970;2024-02-23T03:15:12;72864.91;;;-142.11;100.00
14800;BME280;7491;57.750;11.970;2024-02-23T03:17:42;72877.13;;;-142.11;100.00
14800;BME280;7491;57.750;11.970;2024-02-23T03:20:15;72858.81;;;-142.11;100.00
14800;BME280;7491;57.750;11.970;2024-02-23T03:22:45;72860.84;;;-142.11;100.00
14800;BME280;7491;57.750;11.970;2024-02-23T03:25:13;72852.69;;;-142.11;100.00
14800;BME280;7491;57.750;11.970;2024-02-23T03:27:39;72844.56;;;-142.11;100.00
14800;BME280;7491;57.750;11.970;2024-02-23T03:30:12;72830.28;;;-142.11;100.00
14800;BME280;7491;57.750;11.970;2024-02-23T03:32:57;72838.44;;;-142.11;100.00
14800;BME280;7491;57.750;11.970;2024-02-23T03:35:29;72836.41;;;-142.11;100.00
14800;BME280;7491;57.750;11.970;2024-02-23T03:37:58;72834.38;;;-142.11;100.00
14800;BME280;7491;57.750;11.970;2024-02-23T03:40:28;72830.28;;;-142.11;100.00
14800;BME280;7491;57.750;11.970;2024-02-23T03:43:04;72830.28;;;-142.11;100.00
14800;BME280;7491;57.750;11.970;2024-02-23T03:45:31;72826.22;;;-142.11;100.00
14800;BME280;7491;57.750;11.970;2024-02-23T03:47:59;72834.38;;;-142.11;100.00
14800;BME280;7491;57.750;11.970;2024-02-23T03:50:28;72828.25;;;-142.11;100.00
14800;BME280;7491;57.750;11.970;2024-02-23T03:52:54;72811.97;;;-142.11;100.00
14800;BME280;7491;57.750;11.970;2024-02-23T03:55:21;72801.78;;;-142.11;100.00
14800;BME280;7491;57.750;11.970;2024-02-23T03:57:51;72787.53;;;-142.11;100.00
14800;BME280;7491;57.750;11.970;2024-02-23T04:00:20;72777.34;;;-142.11;100.00
14800;BME280;7491;57.750;11.970;2024-02-23T04:02:48;72775.31;;;-142.11;100.00
14800;BME280;7491;57.750;11.970;2024-02-23T04:05:18;72785.50;;;-142.11;100.00
14800;BME280;7491;57.750;11.970;2024-02-23T04:07:46;72769.19;;;-142.11;100.00
14800;BME280;7491;57.750;11.970;2024-02-23T04:10:13;72746.81;;;-142.11;100.00
14800;BME280;7491;57.750;11.970;2024-02-23T04:12:41;72732.53;;;-142.11;100.00
14800;BME280;7491;57.750;11.970;2024-02-23T04:15:09;72748.84;;;-142.11;100.00
14800;BME280;7491;57.750;11.970;2024-02-23T04:17:36;72752.91;;;-142.11;100.00
14800;BME280;7491;57.750;11.970;2024-02-23T04:20:07;72761.06;;;-142.11;100.00
14800;BME280;7491;57.750;11.970;2024-02-23T04:22:35;72781.41;;;-142.11;100.00
14800;BME280;7491;57.750;11.970;2024-02-23T04:25:04;72824.19;;;-142.11;100.00
14800;BME280;7491;57.750;11.970;2024-02-23T04:27:34;72854.72;;;-142.11;100.00
14800;BME280;7491;57.750;11.970;2024-02-23T04:30:05;72873.06;;;-142.11;100.00
14800;BME280;7491;57.750;11.970;2024-02-23T04:32:33;72897.50;;;-142.11;100.00
14800;BME280;7491;57.750;11.970;2024-02-23T04:35:08;72891.41;;;-142.11;100.00
14800;BME280;7491;57.750;11.970;2024-02-23T04:37:45;72917.88;;;-142.11;100.00
14800;BME280;7491;57.750;11.970;2024-02-23T04:40:14;72936.19;;;-142.11;100.00
14800;BME280;7491;57.750;11.970;2024-02-23T04:42:43;72944.34;;;-142.11;100.00
14800;BME280;7491;57.750;11.970;2024-02-23T04:45:10;72950.44;;;-142.11;100.00
14800;BME280;7491;57.750;11.970;2024-02-23T04:47:37;72962.66;;;-142.11;100.00
14800;BME280;7491;57.750;11.970;2024-02-23T04:50:06;72976.94;;;-142.11;100.00
14800;BME280;7491;57.750;11.970;2024-02-23T04:52:33;72983.03;;;-142.11;100.00
14800;BME280;7491;57.750;11.970;2024-02-23T04:55:00;72970.81;;;-142.11;100.00
14800;BME280;7491;57.750;11.970;2024-02-23T04:57:28;72978.97;;;-142.11;100.00
14800;BME280;7491;57.750;11.970;2024-02-23T04:59:55;72968.78;;;-142.11;100.00
14800;BME280;7491;57.750;11.970;2024-02-23T05:02:21;72983.03;;;-142.11;100.00
14800;BME280;7491;57.750;11.970;2024-02-23T05:04:48;72981.00;;;-142.11;100.00
14800;BME280;7491;57.750;11.970;2024-02-23T05:07:15;72989.16;;;-142.11;100.00
14800;BME280;7491;57.750;11.970;2024-02-23T05:09:41;73013.59;;;-142.11;100.00
14800;BME280;7491;57.750;11.970;2024-02-23T05:12:08;72999.34;;;-142.11;100.00
14800;BME280;7491;57.750;11.970;2024-02-23T05:14:36;73019.69;;;-142.11;100.00
14800;BME280;7491;57.750;11.970;2024-02-23T05:17:03;72985.06;;;-142.11;100.00
14800;BME280;7491;57.750;11.970;2024-02-23T05:19:30;73021.72;;;-142.11;100.00
14800;BME280;7491;57.750;11.970;2024-02-23T05:21:57;73003.41;;;-142.11;100.00
14800;BME280;7491;57.750;11.970;2024-02-23T05:24:23;73023.78;;;-142.11;100.00
14800;BME280;7491;57.750;11.970;2024-02-23T05:26:50;73021.72;;;-142.11;100.00
14800;BME280;7491;57.750;11.970;2024-02-23T05:29:17;73029.88;;;-142.11;100.00
14800;BME280;7491;57.750;11.970;2024-02-23T05:31:51;73044.13;;;-142.11;100.00
14800;BME280;7491;57.750;11.970;2024-02-23T05:34:21;73046.19;;;-142.11;100.00
14800;BME280;7491;57.750;11.970;2024-02-23T05:36:47;73042.09;;;-142.11;100.00
14800;BME280;7491;57.750;11.970;2024-02-23T05:39:15;73050.25;;;-142.11;100.00
14800;BME280;7491;57.750;11.970;2024-02-23T05:41:43;73050.25;;;-142.11;100.00
14800;BME280;7491;57.750;11.970;2024-02-23T05:44:09;73066.53;;;-142.11;100.00
14800;BME280;7491;57.750;11.970;2024-02-23T05:46:38;73066.53;;;-142.11;100.00
14800;BME280;7491;57.750;11.970;2024-02-23T05:49:06;73090.97;;;-142.11;100.00
14800;BME280;7491;57.750;11.970;2024-02-23T05:51:33;73076.72;;;-142.11;100.00
14800;BME280;7491;57.750;11.970;2024-02-23T05:54:00;73090.97;;;-142.11;100.00
14800;BME280;7491;57.750;11.970;2024-02-23T05:56:27;73058.41;;;-142.11;100.00
14800;BME280;7491;57.750;11.970;2024-02-23T05:58:54;73078.75;;;-142.11;100.00
14800;BME280;7491;57.750;11.970;2024-02-23T06:01:20;73097.09;;;-142.11;100.00
14800;BME280;7491;57.750;11.970;2024-02-23T06:03:47;73095.06;;;-142.11;100.00
14800;BME280;7491;57.750;11.970;2024-02-23T06:06:15;73095.06;;;-142.11;100.00
14800;BME280;7491;57.750;11.970;2024-02-23T06:08:42;73105.25;;;-142.11;100.00
14800;BME280;7491;57.750;11.970;2024-02-23T06:11:09;73107.28;;;-142.11;100.00
14800;BME280;7491;57.750;11.970;2024-02-23T06:13:36;73129.69;;;-142.11;100.00
14800;BME280;7491;57.750;11.970;2024-02-23T06:16:03;73135.78;;;-142.11;100.00
14800;BME280;7491;57.750;11.970;2024-02-23T06:18:30;73127.63;;;-142.11;100.00
14800;BME280;7491;57.750;11.970;2024-02-23T06:20:57;73145.97;;;-142.11;100.00
14800;BME280;7491;57.750;11.970;2024-02-23T06:23:25;73158.19;;;-142.11;100.00
14800;BME280;7491;57.750;11.970;2024-02-23T06:25:52;73148.00;;;-142.11;100.00
14800;BME280;7491;57.750;11.970;2024-02-23T06:28:18;73141.91;;;-142.11;100.00
14800;BME280;7491;57.750;11.970;2024-02-23T06:30:45;73152.09;;;-142.11;100.00
14800;BME280;7491;57.750;11.970;2024-02-23T06:33:12;73148.00;;;-142.11;100.00
14800;BME280;7491;57.750;11.970;2024-02-23T06:35:38;73129.69;;;-142.11;100.00
14800;BME280;7491;57.750;11.970;2024-02-23T06:38:05;73127.63;;;-142.11;100.00
14800;BME280;7491;57.750;11.970;2024-02-23T06:40:33;73105.25;;;-142.11;100.00
14800;BME280;7491;57.750;11.970;2024-02-23T06:43:00;73125.59;;;-142.11;100.00
14800;BME280;7491;57.750;11.970;2024-02-23T06:45:26;73141.91;;;-142.11;100.00
14800;BME280;7491;57.750;11.970;2024-02-23T06:47:53;73137.81;;;-142.11;100.00
14800;BME280;7491;57.750;11.970;2024-02-23T06:50:20;73150.03;;;-142.11;100.00
14800;BME280;7491;57.750;11.970;2024-02-23T06:52:47;73158.19;;;-142.11;100.00
14800;BME280;7491;57.750;11.970;2024-02-23T06:55:14;73174.47;;;-142.11;100.00
14800;BME280;7491;57.750;11.970;2024-02-23T06:57:43;73148.00;;;-142.11;100.00
14800;BME280;7491;57.750;11.970;2024-02-23T07:00:10;73194.84;;;-142.11;100.00
14800;BME280;7491;57.750;11.970;2024-02-23T07:02:37;73182.63;;;-142.11;100.00
14800;BME280;7491;57.750;11.970;2024-02-23T07:05:04;73182.63;;;-142.11;100.00
14800;BME280;7491;57.750;11.970;2024-02-23T07:07:32;73205.03;;;-142.11;100.00
14800;BME280;7491;57.750;11.970;2024-02-23T07:09:59;73196.88;;;-142.11;100.00
14800;BME280;7491;57.750;11.970;2024-02-23T07:12:27;73209.13;;;-142.11;100.00
14800;BME280;7491;57.750;11.970;2024-02-23T07:14:56;73209.13;;;-142.11;100.00
14800;BME280;7491;57.750;11.970;2024-02-23T07:17:22;73215.22;;;-142.11;100.00
14800;BME280;7491;57.750;11.970;2024-02-23T07:19:49;73196.88;;;-142.11;100.00
14800;BME280;7491;57.750;11.970;2024-02-23T07:22:18;73231.50;;;-142.11;100.00
14800;BME280;7491;57.750;11.970;2024-02-23T07:24:45;73233.56;;;-142.11;100.00
14800;BME280;7491;57.750;11.970;2024-02-23T07:27:12;73213.19;;;-142.11;100.00
14800;BME280;7491;57.750;11.970;2024-02-23T07:29:39;73227.44;;;-142.11;100.00
14800;BME280;7491;57.750;11.970;2024-02-23T07:32:07;73243.72;;;-142.11;100.00
14800;BME280;7491;57.750;11.970;2024-02-23T07:34:34;73217.25;;;-142.11;100.00
14800;BME280;7491;57.750;11.970;2024-02-23T07:37:00;73241.69;;;-142.11;100.00
14800;BME280;7491;57.750;11.970;2024-02-23T07:39:28;73245.78;;;-142.11;100.00
14800;BME280;7491;57.750;11.970;2024-02-23T07:41:54;73253.91;;;-142.11;100.00
14800;BME280;7491;57.750;11.970;2024-02-23T07:44:21;73241.69;;;-142.11;100.00
14800;BME280;7491;57.750;11.970;2024-02-23T07:46:48;73282.44;;;-142.11;100.00
14800;BME280;7491;57.750;11.970;2024-02-23T07:49:16;73274.28;;;-142.11;100.00
14800;BME280;7491;57.750;11.970;2024-02-23T07:51:43;73264.09;;;-142.11;100.00
14800;BME280;7491;57.750;11.970;2024-02-23T07:54:10;73302.81;;;-142.11;100.00
14800;BME280;7491;57.750;11.970;2024-02-23T07:56:37;73310.94;;;-142.11;100.00
14800;BME280;7491;57.750;11.970;2024-02-23T07:59:03;73317.06;;;-142.11;100.00
14800;BME280;7491;57.750;11.970;2024-02-23T08:01:30;73317.06;;;-142.11;100.00
14800;BME280;7491;57.750;11.970;2024-02-23T08:03:57;73323.16;;;-142.11;100.00
14800;BME280;7491;57.750;11.970;2024-02-23T08:06:25;73337.44;;;-142.11;100.00
14800;BME280;7491;57.750;11.970;2024-02-23T08:08:52;73347.63;;;-142.11;100.00
14800;BME280;7491;57.750;11.970;2024-02-23T08:11:20;73347.63;;;-142.11;100.00
14800;BME280;7491;57.750;11.970;2024-02-23T08:13:47;73353.72;;;-142.11;100.00
14800;BME280;7491;57.750;11.970;2024-02-23T08:16:15;73355.75;;;-142.11;100.00
14800;BME280;7491;57.750;11.970;2024-02-23T08:18:42;73372.06;;;-142.11;100.00
14800;BME280;7491;57.750;11.970;2024-02-23T08:21:09;73378.16;;;-142.11;100.00
14800;BME280;7491;57.750;11.970;2024-02-23T08:23:37;73390.38;;;-142.11;100.00
14800;BME280;7491;57.750;11.970;2024-02-23T08:26:05;73376.13;;;-142.11;100.00
14800;BME280;7491;57.750;11.970;2024-02-23T08:28:32;73380.19;;;-142.11;100.00
14800;BME280;7491;57.750;11.970;2024-02-23T08:30:59;73420.94;;;-142.11;100.00
14800;BME280;7491;57.750;11.970;2024-02-23T08:33:25;73396.50;;;-142.11;100.00
14800;BME280;7491;57.750;11.970;2024-02-23T08:35:52;73429.09;;;-142.11;100.00
14800;BME280;7491;57.750;11.970;2024-02-23T08:38:19;73445.38;;;-142.11;100.00
14800;BME280;7491;57.750;11.970;2024-02-23T08:40:47;73461.69;;;-142.11;100.00
14800;BME280;7491;57.750;11.970;2024-02-23T08:43:14;73480.00;;;-142.11;100.00
14800;BME280;7491;57.750;11.970;2024-02-23T08:45:41;73482.03;;;-142.11;100.00
14800;BME280;7491;57.750;11.970;2024-02-23T08:48:08;73465.75;;;-142.11;100.00
14800;BME280;7491;57.750;11.970;2024-02-23T08:50:34;73482.03;;;-142.11;100.00
14800;BME280;7491;57.750;11.970;2024-02-23T08:53:03;73484.09;;;-142.11;100.00
14800;BME280;7491;57.750;11.970;2024-02-23T08:55:30;73506.50;;;-142.11;100.00
14800;BME280;7491;57.750;11.970;2024-02-23T08:57:59;73498.34;;;-142.11;100.00
14800;BME280;7491;57.750;11.970;2024-02-23T09:00:26;73500.38;;;-142.11;100.00
14800;BME280;7491;57.750;11.970;2024-02-23T09:02:53;73514.63;;;-142.11;100.00
14800;BME280;7491;57.750;11.970;2024-02-23T09:05:19;73526.84;;;-142.11;100.00
14800;BME280;7491;57.750;11.970;2024-02-23T09:07:47;73508.53;;;-142.11;100.00
14800;BME280;7491;57.750;11.970;2024-02-23T09:10:13;73512.59;;;-142.11;100.00
14800;BME280;7491;57.750;11.970;2024-02-23T09:12:40;73530.94;;;-142.11;100.00
14800;BME280;7491;57.750;11.970;2024-02-23T09:15:09;73528.91;;;-142.11;100.00
14800;BME280;7491;57.750;11.970;2024-02-23T09:17:36;73530.94;;;-142.11;100.00
14800;BME280;7491;57.750;11.970;2024-02-23T09:20:03;73535.00;;;-142.11;100.00
14800;BME280;7491;57.750;11.970;2024-02-23T09:22:30;73561.50;;;-142.11;100.00
14800;BME280;7491;57.750;11.970;2024-02-23T09:24:57;73557.41;;;-142.11;100.00
14800;BME280;7491;57.750;11.970;2024-02-23T09:27:23;73559.44;;;-142.11;100.00
14800;BME280;7491;57.750;11.970;2024-02-23T09:29:50;73575.75;;;-142.11;100.00
14800;BME280;7491;57.750;11.970;2024-02-23T09:32:18;73571.66;;;-142.11;100.00
14800;BME280;7491;57.750;11.970;2024-02-23T09:34:45;73585.94;;;-142.11;100.00
14800;BME280;7491;57.750;11.970;2024-02-23T09:37:11;73577.78;;;-142.11;100.00
14800;BME280;7491;57.750;11.970;2024-02-23T09:39:38;73551.31;;;-142.11;100.00
14800;BME280;7491;57.750;11.970;2024-02-23T09:42:07;73563.53;;;-142.11;100.00
14800;BME280;7491;57.750;11.970;2024-02-23T09:44:35;73571.66;;;-142.11;100.00
14800;BME280;7491;57.750;11.970;2024-02-23T09:47:03;73575.75;;;-142.11;100.00
14800;BME280;7491;57.750;11.970;2024-02-23T09:49:37;73596.13;;;-142.11;100.00
14800;BME280;7491;57.750;11.970;2024-02-23T09:52:07;73592.03;;;-142.11;100.00
14800;BME280;7491;57.750;11.970;2024-02-23T09:54:33;73598.16;;;-142.11;100.00
14800;BME280;7491;57.750;11.970;2024-02-23T09:57:02;73620.56;;;-142.11;100.00
14800;BME280;7491;57.750;11.970;2024-02-23T09:59:31;73614.44;;;-142.11;100.00
14800;BME280;7491;57.750;11.970;2024-02-23T10:01:59;73634.81;;;-142.11;100.00
14800;BME280;7491;57.750;11.970;2024-02-23T10:04:27;73636.84;;;-142.11;100.00
14800;BME280;7491;57.750;11.970;2024-02-23T10:06:56;73610.38;;;-142.11;100.00
14800;BME280;7491;57.750;11.970;2024-02-23T10:09:23;73616.47;;;-142.11;100.00
14800;BME280;7491;57.750;11.970;2024-02-23T10:11:52;73622.59;;;-142.11;100.00
14800;BME280;7491;57.750;11.970;2024-02-23T10:14:19;73600.19;;;-142.11;100.00
14800;BME280;7491;57.750;11.970;2024-02-23T10:16:46;73638.88;;;-142.11;100.00
14800;BME280;7491;57.750;11.970;2024-02-23T10:19:12;73583.88;;;-142.11;100.00
14800;BME280;7491;57.750;11.970;2024-02-23T10:21:39;73592.03;;;-142.11;100.00
14800;BME280;7491;57.750;11.970;2024-02-23T10:24:09;73596.13;;;-142.11;100.00
14800;BME280;7491;57.750;11.970;2024-02-23T10:26:36;73579.81;;;-142.11;100.00
14800;BME280;7491;57.750;11.970;2024-02-23T10:29:03;73590.00;;;-142.11;100.00
14800;BME280;7491;57.750;11.970;2024-02-23T10:31:34;73604.25;;;-142.11;100.00
14800;BME280;7491;57.750;11.970;2024-02-23T10:34:04;73594.06;;;-142.11;100.00
14800;BME280;7491;57.750;11.970;2024-02-23T10:36:40;73616.47;;;-142.11;100.00
14800;BME280;7491;57.750;11.970;2024-02-23T10:39:09;73616.47;;;-142.11;100.00
14800;BME280;7491;57.750;11.970;2024-02-23T10:41:36;73661.31;;;-142.11;100.00
14800;BME280;7491;57.750;11.970;2024-02-23T10:44:04;73659.25;;;-142.11;100.00
14800;BME280;7491;57.750;11.970;2024-02-23T10:46:32;73675.56;;;-142.11;100.00
14800;BME280;7491;57.750;11.970;2024-02-23T10:49:15;73679.63;;;-142.11;100.00
14800;BME280;7491;57.750;11.970;2024-02-23T10:51:46;73706.13;;;-142.11;100.00
14800;BME280;7491;57.750;11.970;2024-02-23T10:54:16;73689.81;;;-142.11;100.00
14800;BME280;7491;57.750;11.970;2024-02-23T10:56:46;73687.78;;;-142.11;100.00
14800;BME280;7491;57.750;11.970;2024-02-23T10:59:14;73679.63;;;-142.11;100.00
14800;BME280;7491;57.750;11.970;2024-02-23T11:01:49;73691.84;;;-142.11;100.00
14800;BME280;7491;57.750;11.970;2024-02-23T11:04:18;73697.97;;;-142.11;100.00
14800;BME280;7491;57.750;11.970;2024-02-23T11:06:50;73708.16;;;-142.11;100.00
14800;BME280;7491;57.750;11.970;2024-02-23T11:09:21;73714.25;;;-142.11;100.00
14800;BME280;7491;57.750;11.970;2024-02-23T11:11:55;73726.47;;;-142.11;100.00
14800;BME280;7491;57.750;11.970;2024-02-23T11:14:31;73738.72;;;-142.11;100.00
14800;BME280;7491;57.750;11.970;2024-02-23T11:17:02;73783.53;;;-142.11;100.00
14800;BME280;7491;57.750;11.970;2024-02-23T11:19:42;73765.19;;;-142.11;100.00
14800;BME280;7491;57.750;11.970;2024-02-23T11:22:23;73771.31;;;-142.11;100.00
14800;BME280;7491;57.750;11.970;2024-02-23T11:27:58;73777.41;;;-142.11;100.00
14800;BME280;7491;57.750;11.970;2024-02-23T11:30:35;73773.34;;;-142.11;100.00
14800;BME280;7491;57.750;11.970;2024-02-23T11:33:28;73795.75;;;-142.11;100.00
14800;BME280;7491;57.750;11.970;2024-02-23T11:36:31;73822.22;;;-142.11;100.00
14800;BME280;7491;57.750;11.970;2024-02-23T11:39:02;73879.25;;;-142.11;100.00
14800;BME280;7491;57.750;11.970;2024-02-23T11:41:31;73858.91;;;-142.11;100.00
14800;BME280;7491;57.750;11.970;2024-02-23T11:43:58;73860.94;;;-142.11;100.00
14800;BME280;7491;57.750;11.970;2024-02-23T11:46:27;73875.19;;;-142.11;100.00
14800;BME280;7491;57.750;11.970;2024-02-23T11:48:59;73854.81;;;-142.11;100.00
14800;BME280;7491;57.750;11.970;2024-02-23T11:51:27;73871.13;;;-142.11;100.00
14800;BME280;7491;57.750;11.970;2024-02-23T11:54:03;73887.41;;;-142.11;100.00
14800;BME280;7491;57.750;11.970;2024-02-23T11:56:41;73885.38;;;-142.11;100.00
14800;BME280;7491;57.750;11.970;2024-02-23T11:59:15;73879.25;;;-142.11;100.00
14800;BME280;7491;57.750;11.970;2024-02-23T12:01:43;73860.94;;;-142.11;100.00
14800;BME280;7491;57.750;11.970;2024-02-23T12:04:16;73862.97;;;-142.11;100.00
14800;BME280;7491;57.750;11.970;2024-02-23T12:06:43;73865.00;;;-142.11;100.00
14800;BME280;7491;57.750;11.970;2024-02-23T12:09:11;73865.00;;;-142.11;100.00
14800;BME280;7491;57.750;11.970;2024-02-23T12:11:40;73885.38;;;-142.11;100.00
14800;BME280;7491;57.750;11.970;2024-02-23T12:14:25;73889.44;;;-142.11;100.00
14800;BME280;7491;57.750;11.970;2024-02-23T12:17:02;73903.72;;;-142.11;100.00
14800;BME280;7491;57.750;11.970;2024-02-23T12:20:14;73899.63;;;-142.11;100.00
14800;BME280;7491;57.750;11.970;2024-02-23T12:22:58;73920.00;;;-142.11;100.00
14800;BME280;7491;57.750;11.970;2024-02-23T12:29:20;73956.69;;;-142.11;100.00
14800;BME280;7491;57.750;11.970;2024-02-23T12:32:22;73991.31;;;-142.11;100.00
14800;BME280;7491;57.750;11.970;2024-02-23T12:38:24;74009.66;;;-142.11;100.00
14800;BME280;7491;57.750;11.970;2024-02-23T12:44:10;74056.50;;;-142.11;100.00
14800;BME280;7491;57.750;11.970;2024-02-23T12:46:44;74062.63;;;-142.11;100.00
14800;BME280;7491;57.750;11.970;2024-02-23T12:49:26;74072.81;;;-142.11;100.00
14800;BME280;7491;57.750;11.970;2024-02-23T12:51:56;74085.03;;;-142.11;100.00
14800;BME280;7491;57.750;11.970;2024-02-23T12:54:23;74056.50;;;-142.11;100.00